ENRS/RET METAR and TAF weather

Enter ICAO airport designator
Station Type Date Time Source
ENRS METAR 2019/12/13 18:50 UTC NOAA

ENRS 131850Z 17021KT CAVOK 05/M02 Q0988


Station Type Date Time Source
ENRS Decoded METAR 2019/12/13 18:50 UTC NOAA

Rost Flyplass, Norway (ENRS) 67-31N 012-06E
Dec 13, 2019 - 01:50 PM EST / 2019.12.13 1850 UTC
Wind: from the S (170 degrees) at 24 MPH (21 KT):0
Visibility: greater than 7 mile(s):0
Temperature: 41 F (5 C)
Dew Point: 28 F (-2 C)
Relative Humidity: 60%
Pressure (altimeter): 29.18 in. Hg (0988 hPa)
ob: ENRS 131850Z 17021KT CAVOK 05/M02 Q0988
cycle: 19

Station Type Date Time Source
ENRS TAF UTC NOAA

Error!

Example: see airport list